createdAt,value
2023-02-02T00:01:45.875Z,-1.12
2023-02-02T00:04:19.453Z,-1.12
2023-02-02T00:06:48.165Z,-1.16
2023-02-02T00:09:18.291Z,-1.19
2023-02-02T00:11:47.750Z,-1.22
2023-02-02T00:14:16.282Z,-1.24
2023-02-02T00:16:49.262Z,-1.27
2023-02-02T00:19:30.553Z,-1.28
2023-02-02T00:21:59.314Z,-1.30
2023-02-02T00:24:27.892Z,-1.31
2023-02-02T00:26:58.735Z,-1.32
2023-02-02T00:29:29.274Z,-1.34
2023-02-02T00:31:58.151Z,-1.36
2023-02-02T00:34:26.579Z,-1.37
2023-02-02T00:36:55.327Z,-1.40
2023-02-02T00:39:27.707Z,-1.44
2023-02-02T00:41:56.641Z,-1.51
2023-02-02T00:44:43.897Z,-1.59
2023-02-02T00:47:12.488Z,-1.67
2023-02-02T00:49:41.086Z,-1.74
2023-02-02T00:52:12.110Z,-1.78
2023-02-02T00:54:40.606Z,-1.80
2023-02-02T00:57:13.009Z,-1.81
2023-02-02T00:59:42.475Z,-1.84
2023-02-02T01:02:11.713Z,-1.88
2023-02-02T01:04:40.442Z,-1.91
2023-02-02T01:07:09.456Z,-1.91
2023-02-02T01:09:38.057Z,-1.88
2023-02-02T01:12:10.739Z,-1.85
2023-02-02T01:14:39.608Z,-1.84
2023-02-02T01:17:08.000Z,-1.83
2023-02-02T01:19:36.443Z,-1.82
2023-02-02T01:22:05.380Z,-1.81
2023-02-02T01:24:34.585Z,-1.81
2023-02-02T01:27:03.413Z,-1.79
2023-02-02T01:29:33.426Z,-1.78
2023-02-02T01:32:01.845Z,-1.76
2023-02-02T01:34:30.492Z,-1.71
2023-02-02T01:36:58.898Z,-1.65
2023-02-02T01:39:27.277Z,-1.61
2023-02-02T01:41:55.820Z,-1.58
2023-02-02T01:45:01.903Z,-1.56
2023-02-02T01:47:37.222Z,-1.53
2023-02-02T01:50:06.572Z,-1.52
2023-02-02T01:52:36.205Z,-1.53
2023-02-02T01:55:08.777Z,-1.52
2023-02-02T01:57:51.773Z,-1.49
2023-02-02T02:00:25.617Z,-1.47
2023-02-02T02:03:09.962Z,-1.45
2023-02-02T02:05:43.019Z,-1.44
2023-02-02T02:08:40.681Z,-1.45
2023-02-02T02:11:09.336Z,-1.45
2023-02-02T02:13:56.838Z,-1.44
2023-02-02T02:16:48.287Z,-1.42
2023-02-02T02:19:36.795Z,-1.42
2023-02-02T06:35:44.380Z,-0.69
2023-02-02T06:38:13.727Z,-0.51
2023-02-02T06:40:41.382Z,-0.45
2023-02-02T06:43:09.260Z,-0.40
2023-02-02T06:45:39.858Z,-0.36
2023-02-02T06:48:15.351Z,-0.34
2023-02-02T06:50:45.146Z,-0.31
2023-02-02T06:53:13.332Z,-0.28
2023-02-02T06:55:43.546Z,-0.28
2023-02-02T06:58:14.042Z,-0.31
2023-02-02T07:00:42.155Z,-0.34
2023-02-02T07:03:11.900Z,-0.34
2023-02-02T07:05:42.335Z,-0.30
2023-02-02T07:08:12.716Z,-0.26
2023-02-02T07:11:10.551Z,-0.24
2023-02-02T07:13:33.823Z,-0.18
2023-02-02T07:16:08.044Z,-0.14
2023-02-02T07:18:37.504Z,-0.10
2023-02-02T07:21:05.776Z,-0.06
2023-02-02T07:23:34.212Z,-0.02
2023-02-02T07:26:07.413Z,-0.00
2023-02-02T07:28:38.362Z,0.02
2023-02-02T07:31:15.538Z,0.08
2023-02-02T07:34:10.627Z,0.16
2023-02-02T07:36:39.257Z,0.21
2023-02-02T07:39:07.841Z,0.23
2023-02-02T07:41:37.406Z,0.25
2023-02-02T07:44:05.724Z,0.30
2023-02-02T07:46:36.091Z,0.31
2023-02-02T07:49:06.768Z,0.27
2023-02-02T07:51:37.847Z,0.28
2023-02-02T07:54:05.712Z,0.36
2023-02-02T07:56:33.631Z,0.42
2023-02-02T07:59:01.960Z,0.46
2023-02-02T08:01:29.896Z,0.48
2023-02-02T08:04:03.109Z,0.49
2023-02-02T08:06:32.930Z,0.53
2023-02-02T08:09:02.461Z,0.60
2023-02-02T08:11:35.910Z,0.70
2023-02-02T08:14:05.653Z,0.77
2023-02-02T08:16:35.744Z,0.80
2023-02-02T08:19:08.639Z,0.85
2023-02-02T08:21:39.361Z,0.92
2023-02-02T08:24:08.153Z,1.01
2023-02-02T08:26:40.451Z,1.09
2023-02-02T08:29:11.054Z,1.13
2023-02-02T08:31:42.295Z,1.16
2023-02-02T08:34:11.946Z,1.19
2023-02-02T08:36:42.636Z,1.27
2023-02-02T08:39:12.543Z,1.42
2023-02-02T08:41:43.224Z,1.62
2023-02-02T08:44:14.326Z,1.85
2023-02-02T08:46:41.919Z,2.15
2023-02-02T08:49:12.255Z,2.49
2023-02-02T08:51:42.480Z,2.94
2023-02-02T08:54:12.275Z,3.79
2023-02-02T08:56:41.338Z,4.91
2023-02-02T08:59:10.179Z,6.15
2023-02-02T09:01:40.872Z,7.18
2023-02-02T09:04:13.542Z,7.64
2023-02-02T09:06:42.036Z,7.48
2023-02-02T09:09:12.955Z,7.19
2023-02-02T09:11:42.336Z,7.23
2023-02-02T09:14:13.427Z,6.94
2023-02-02T09:16:41.806Z,6.25
2023-02-02T09:19:10.483Z,5.53
2023-02-02T09:21:38.819Z,4.82
2023-02-02T09:24:12.318Z,4.16
2023-02-02T09:26:42.619Z,3.62
2023-02-02T09:29:15.774Z,3.34
2023-02-02T09:31:47.759Z,3.35
2023-02-02T09:34:16.608Z,3.44
2023-02-02T09:36:44.607Z,3.54
2023-02-02T09:39:14.496Z,3.68
2023-02-02T09:41:55.995Z,3.95
2023-02-02T09:44:46.299Z,4.72
2023-02-02T09:47:33.667Z,5.67
2023-02-02T09:50:14.922Z,5.91
2023-02-02T09:52:50.928Z,5.74
2023-02-02T09:55:41.645Z,5.21
2023-02-02T09:58:16.787Z,4.61
2023-02-02T10:00:48.599Z,4.12
2023-02-02T10:03:23.281Z,3.66
2023-02-02T10:06:06.886Z,3.32
2023-02-02T14:20:01.985Z,1.07
2023-02-02T14:22:51.882Z,1.05
2023-02-02T14:25:29.458Z,0.97
2023-02-02T14:27:59.950Z,0.90
2023-02-02T14:30:33.432Z,0.84
2023-02-02T14:33:24.406Z,0.78
2023-02-02T14:35:56.271Z,0.73
2023-02-02T14:38:56.100Z,0.68
2023-02-02T14:42:07.251Z,0.59
2023-02-02T14:44:38.085Z,0.51
2023-02-02T14:47:36.502Z,0.46
2023-02-02T14:50:11.803Z,0.43
2023-02-02T14:52:40.233Z,0.38
2023-02-02T14:55:20.919Z,0.34
2023-02-02T14:58:02.762Z,0.29
2023-02-02T15:00:32.789Z,0.25
2023-02-02T15:03:35.530Z,0.22
2023-02-02T15:06:05.862Z,0.20
2023-02-02T15:08:37.875Z,0.17
2023-02-02T15:11:25.996Z,0.14
2023-02-02T15:13:57.499Z,0.11
2023-02-02T15:16:28.671Z,0.08
2023-02-02T15:19:28.658Z,0.06
2023-02-02T15:21:57.498Z,0.04
2023-02-02T15:24:26.744Z,0.03
2023-02-02T15:26:55.298Z,0.02
2023-02-02T15:29:42.966Z,-0.01
2023-02-02T15:32:16.917Z,-0.06
2023-02-02T15:34:50.239Z,-0.07
2023-02-02T15:37:21.358Z,-0.07
2023-02-02T15:39:52.379Z,-0.09
2023-02-02T15:42:47.538Z,-0.08
2023-02-02T15:45:28.290Z,-0.08
2023-02-02T15:47:57.711Z,-0.08
2023-02-02T15:50:27.104Z,-0.05
2023-02-02T15:52:56.585Z,-0.02
2023-02-02T15:55:30.785Z,0.01
2023-02-02T15:57:59.408Z,0.03
2023-02-02T16:00:32.973Z,0.06
2023-02-02T16:03:06.952Z,0.10
2023-02-02T16:05:35.283Z,0.12
2023-02-02T16:08:34.457Z,0.14
2023-02-02T16:11:07.604Z,0.13
2023-02-02T16:13:36.836Z,0.14
2023-02-02T16:16:26.433Z,0.15
2023-02-02T16:19:19.987Z,0.15
2023-02-02T16:21:54.309Z,0.14
2023-02-02T16:24:28.127Z,0.15
2023-02-02T16:26:58.500Z,0.18
2023-02-02T16:29:28.406Z,0.21
2023-02-02T16:31:56.904Z,0.23
2023-02-02T16:34:40.831Z,0.28
2023-02-02T16:37:12.613Z,0.32
2023-02-02T16:39:42.075Z,0.37
2023-02-02T16:42:11.343Z,0.39
2023-02-02T16:44:43.072Z,0.44
2023-02-02T16:47:26.800Z,0.49
2023-02-02T16:50:06.431Z,0.55
2023-02-02T16:52:36.205Z,0.60
2023-02-02T16:55:04.738Z,0.65
2023-02-02T16:57:34.512Z,0.65
2023-02-02T17:00:05.651Z,0.64
2023-02-02T17:02:40.992Z,0.67
2023-02-02T17:05:23.927Z,0.71
2023-02-02T17:07:55.128Z,0.70
2023-02-02T17:10:26.241Z,0.71
2023-02-02T17:12:54.707Z,0.70
2023-02-02T17:15:35.743Z,0.67
2023-02-02T17:18:05.450Z,0.63
2023-02-02T17:20:34.785Z,0.61
2023-02-02T17:23:07.098Z,0.61
2023-02-02T17:25:42.464Z,0.64
2023-02-02T17:28:13.729Z,0.68
2023-02-02T17:30:43.303Z,0.72
2023-02-02T17:33:15.932Z,0.77
2023-02-02T17:35:55.000Z,0.81
2023-02-02T17:38:24.780Z,0.83
2023-02-02T17:40:53.311Z,0.84
2023-02-02T17:43:21.951Z,0.86
2023-02-02T17:45:51.310Z,0.85
2023-02-02T17:48:20.836Z,0.84
2023-02-02T17:50:49.364Z,0.82
2023-02-02T17:53:20.487Z,0.79
2023-02-02T17:55:50.160Z,0.76
2023-02-02T17:58:18.848Z,0.73
2023-02-02T18:00:49.025Z,0.70
2023-02-02T18:03:28.531Z,0.68
2023-02-02T18:06:00.701Z,0.68
2023-02-02T18:08:30.474Z,0.67
2023-02-02T18:11:01.102Z,0.66
2023-02-02T18:13:31.030Z,0.67
2023-02-02T18:16:00.110Z,0.66
2023-02-02T18:18:30.011Z,0.66
2023-02-02T18:20:59.157Z,0.65
2023-02-02T18:23:27.499Z,0.65
2023-02-02T18:25:55.992Z,0.66
2023-02-02T18:28:24.570Z,0.68
2023-02-02T18:30:53.228Z,0.69
2023-02-02T18:33:23.574Z,0.69
2023-02-02T18:35:51.952Z,0.70
2023-02-02T18:38:21.464Z,0.69
2023-02-02T18:40:58.889Z,0.68
2023-02-02T18:43:27.265Z,0.67
2023-02-02T18:46:04.562Z,0.63
2023-02-02T18:48:33.443Z,0.60
2023-02-02T18:51:06.202Z,0.56
2023-02-02T18:53:34.784Z,0.54
2023-02-02T18:56:06.736Z,0.51
2023-02-02T18:58:35.652Z,0.48
2023-02-02T19:01:08.760Z,0.46
2023-02-02T19:03:37.196Z,0.45
2023-02-02T19:06:25.265Z,0.43
2023-02-02T19:08:54.206Z,0.43
2023-02-02T19:11:24.026Z,0.43
2023-02-02T19:13:52.388Z,0.43
2023-02-02T19:16:23.740Z,0.43
2023-02-02T19:18:52.218Z,0.45
2023-02-02T19:21:20.849Z,0.48
2023-02-02T19:23:49.183Z,0.49
2023-02-02T19:26:24.710Z,0.52
2023-02-02T19:28:54.011Z,0.53
2023-02-02T19:31:22.561Z,0.54
2023-02-02T19:33:51.814Z,0.54
2023-02-02T19:36:20.889Z,0.53
2023-02-02T19:38:50.852Z,0.53
2023-02-02T19:41:21.097Z,0.51
2023-02-02T19:43:50.315Z,0.51
2023-02-02T19:46:23.132Z,0.50
2023-02-02T19:48:54.112Z,0.50
2023-02-02T19:51:43.968Z,0.50
2023-02-02T19:54:22.330Z,0.49
2023-02-02T19:56:53.336Z,0.49
2023-02-02T19:59:21.910Z,0.49
2023-02-02T20:01:51.024Z,0.48
2023-02-02T20:04:19.816Z,0.48
2023-02-02T20:06:58.532Z,0.49
2023-02-02T20:09:33.224Z,0.49
2023-02-02T20:12:25.702Z,0.49
2023-02-02T20:14:54.459Z,0.48
2023-02-02T20:17:29.315Z,0.48
2023-02-02T20:19:57.784Z,0.48
2023-02-02T20:22:29.754Z,0.45
2023-02-02T20:25:02.698Z,0.44
2023-02-02T20:27:35.130Z,0.40
2023-02-02T20:30:19.653Z,0.39
2023-02-02T20:32:49.751Z,0.39
2023-02-02T20:35:25.795Z,0.38
2023-02-02T20:37:56.209Z,0.36
2023-02-02T20:40:28.237Z,0.35
2023-02-02T20:42:58.515Z,0.34
2023-02-02T20:45:28.088Z,0.33
2023-02-02T20:47:56.857Z,0.34
2023-02-02T20:50:25.847Z,0.36
2023-02-02T20:52:55.839Z,0.38
2023-02-02T20:55:24.242Z,0.40
2023-02-02T20:57:53.196Z,0.42
2023-02-02T21:00:27.339Z,0.40
2023-02-02T21:02:55.927Z,0.39
2023-02-02T21:05:25.840Z,0.39
2023-02-02T21:07:57.330Z,0.38
2023-02-02T21:10:26.029Z,0.37
2023-02-02T21:12:54.555Z,0.34
2023-02-02T21:15:23.646Z,0.29
2023-02-02T21:17:52.529Z,0.26
2023-02-02T21:20:21.842Z,0.26
2023-02-02T21:22:51.768Z,0.23
2023-02-02T21:25:20.159Z,0.20
2023-02-02T21:27:57.891Z,0.16
2023-02-02T21:30:26.784Z,0.13
2023-02-02T21:32:55.809Z,0.08
2023-02-02T21:35:25.727Z,0.00
2023-02-02T21:37:56.490Z,-0.04
2023-02-02T21:40:30.479Z,-0.08
2023-02-02T21:43:00.069Z,-0.13
2023-02-02T21:45:36.022Z,-0.17
2023-02-02T21:48:26.341Z,-0.17
2023-02-02T21:50:54.710Z,-0.18
2023-02-02T21:53:24.293Z,-0.20
2023-02-02T21:55:56.599Z,-0.21
2023-02-02T21:58:36.299Z,-0.25
2023-02-02T22:01:18.544Z,-0.28
2023-02-02T22:03:49.839Z,-0.29
2023-02-02T22:06:21.085Z,-0.30
2023-02-02T22:08:51.121Z,-0.33
2023-02-02T22:11:31.219Z,-0.36
2023-02-02T22:14:20.488Z,-0.39
2023-02-02T22:16:51.909Z,-0.42
2023-02-02T22:19:25.317Z,-0.45
2023-02-02T22:21:55.200Z,-0.49
2023-02-02T22:24:23.854Z,-0.50
2023-02-02T22:26:53.038Z,-0.53
2023-02-02T22:29:21.418Z,-0.55
2023-02-02T22:31:50.265Z,-0.57
2023-02-02T22:34:18.800Z,-0.60
2023-02-02T22:36:47.177Z,-0.62
2023-02-02T22:39:15.410Z,-0.65
2023-02-02T22:41:44.284Z,-0.67
2023-02-02T22:44:12.635Z,-0.72
2023-02-02T22:46:41.322Z,-0.75
2023-02-02T22:49:09.899Z,-0.79
2023-02-02T22:51:38.589Z,-0.84
2023-02-02T22:54:06.868Z,-0.87
2023-02-02T22:56:35.328Z,-0.91
2023-02-02T22:59:04.676Z,-0.94
2023-02-02T23:01:33.438Z,-1.00
2023-02-02T23:04:01.828Z,-1.03
2023-02-02T23:06:30.385Z,-1.05
2023-02-02T23:08:58.951Z,-1.06
2023-02-02T23:11:27.265Z,-1.07
2023-02-02T23:13:55.577Z,-1.07
2023-02-02T23:16:24.037Z,-1.06
2023-02-02T23:18:56.634Z,-1.03
2023-02-02T23:21:24.986Z,-0.99
2023-02-02T23:23:53.330Z,-0.97
2023-02-02T23:26:22.835Z,-1.00
2023-02-02T23:28:52.032Z,-1.04
2023-02-02T23:31:20.607Z,-1.07
2023-02-02T23:33:49.669Z,-1.10
2023-02-02T23:36:18.951Z,-1.13
2023-02-02T23:38:47.323Z,-1.15
2023-02-02T23:41:16.122Z,-1.16
2023-02-02T23:43:44.378Z,-1.18
2023-02-02T23:46:12.826Z,-1.22
2023-02-02T23:48:41.723Z,-1.25
2023-02-02T23:51:09.978Z,-1.27
2023-02-02T23:53:38.361Z,-1.31
2023-02-02T23:56:07.336Z,-1.33
2023-02-02T23:58:36.049Z,-1.35
